createdAt,value
2019-05-10T00:00:43.282Z,12.69
2019-05-10T00:03:29.477Z,12.64
2019-05-10T00:06:15.927Z,12.63
2019-05-10T00:08:46.175Z,12.64
2019-05-10T00:11:30.264Z,12.61
2019-05-10T00:14:06.155Z,12.56
2019-05-10T00:16:35.281Z,12.55
2019-05-10T00:19:03.582Z,12.56
2019-05-10T00:21:31.895Z,12.56
2019-05-10T00:24:00.178Z,12.57
2019-05-10T00:26:28.809Z,12.57
2019-05-10T00:28:57.104Z,12.55
2019-05-10T00:31:25.480Z,12.50
2019-05-10T00:33:53.899Z,12.45
2019-05-10T00:36:22.179Z,12.39
2019-05-10T00:38:50.503Z,12.34
2019-05-10T00:41:19.065Z,12.26
2019-05-10T00:43:47.399Z,12.23
2019-05-10T00:46:15.665Z,12.20
2019-05-10T00:48:43.984Z,12.16
2019-05-10T00:51:12.268Z,12.13
2019-05-10T00:53:40.857Z,12.05
2019-05-10T00:56:09.462Z,11.94
2019-05-10T00:58:38.020Z,11.86
2019-05-10T01:01:06.312Z,11.85
2019-05-10T01:03:34.630Z,11.83
2019-05-10T01:06:02.996Z,11.79
2019-05-10T01:08:31.294Z,11.73
2019-05-10T01:10:59.608Z,11.69
2019-05-10T01:13:27.973Z,11.69
2019-05-10T01:15:56.272Z,11.67
2019-05-10T01:18:24.579Z,11.64
2019-05-10T01:20:52.877Z,11.57
2019-05-10T01:23:21.180Z,11.53
2019-05-10T01:25:49.489Z,11.52
2019-05-10T01:28:17.772Z,11.55
2019-05-10T01:30:46.168Z,11.61
2019-05-10T01:33:14.560Z,11.68
2019-05-10T01:35:42.796Z,11.69
2019-05-10T01:38:11.108Z,11.72
2019-05-10T01:40:39.404Z,11.70
2019-05-10T01:43:07.733Z,11.70
2019-05-10T01:45:36.045Z,11.68
2019-05-10T01:48:04.319Z,11.70
2019-05-10T01:50:32.668Z,11.75
2019-05-10T01:53:01.350Z,11.74
2019-05-10T01:55:29.659Z,11.75
2019-05-10T01:57:58.013Z,11.75
2019-05-10T02:00:26.289Z,11.80
2019-05-10T02:02:54.589Z,11.83
2019-05-10T02:05:22.915Z,11.84
2019-05-10T02:07:51.513Z,11.82
2019-05-10T02:10:19.904Z,11.81
2019-05-10T02:12:48.193Z,11.81
2019-05-10T02:15:16.683Z,11.84
2019-05-10T02:17:45.048Z,11.83
2019-05-10T02:20:14.113Z,11.81
2019-05-10T02:22:42.388Z,11.79
2019-05-10T02:25:11.446Z,11.78
2019-05-10T02:27:39.769Z,11.77
2019-05-10T02:30:08.619Z,11.79
2019-05-10T02:32:36.902Z,11.79
2019-05-10T02:35:07.337Z,11.78
2019-05-10T02:37:35.727Z,11.79
2019-05-10T02:40:05.165Z,11.79
2019-05-10T02:42:33.998Z,11.78
2019-05-10T02:45:02.477Z,11.77
2019-05-10T02:47:30.795Z,11.76
2019-05-10T02:49:59.532Z,11.73
2019-05-10T02:52:28.237Z,11.69
2019-05-10T02:54:56.708Z,11.70
2019-05-10T02:57:25.390Z,11.69
2019-05-10T02:59:54.322Z,11.64
2019-05-10T03:02:23.213Z,11.59
2019-05-10T03:04:53.071Z,11.54
2019-05-10T03:07:24.879Z,11.53
2019-05-10T03:09:53.201Z,11.54
2019-05-10T03:12:23.825Z,11.56
2019-05-10T03:14:56.867Z,11.59
2019-05-10T03:17:26.055Z,11.62
2019-05-10T03:19:55.067Z,11.65
2019-05-10T03:22:25.439Z,11.68
2019-05-10T03:24:54.186Z,11.68
2019-05-10T03:27:22.544Z,11.68
2019-05-10T03:29:51.200Z,11.70
2019-05-10T03:32:19.624Z,11.73
2019-05-10T03:34:48.078Z,11.74
2019-05-10T03:37:16.382Z,11.74
2019-05-10T03:39:51.082Z,11.74
2019-05-10T03:42:19.389Z,11.75
2019-05-10T03:44:47.677Z,11.77
2019-05-10T03:47:16.011Z,11.78
2019-05-10T03:49:44.294Z,11.80
2019-05-10T03:52:12.664Z,11.80
2019-05-10T03:54:40.972Z,11.76
2019-05-10T03:57:13.723Z,11.77
2019-05-10T03:59:39.586Z,11.76
2019-05-10T04:02:07.982Z,11.76
2019-05-10T04:04:36.295Z,11.74
2019-05-10T04:07:04.608Z,11.77
2019-05-10T04:09:32.915Z,11.77
2019-05-10T04:12:01.204Z,11.75
2019-05-10T04:14:29.778Z,11.72
2019-05-10T04:16:58.243Z,11.76
2019-05-10T04:19:26.549Z,11.76
2019-05-10T04:21:54.864Z,11.77
2019-05-10T04:24:23.174Z,11.81
2019-05-10T04:26:51.471Z,11.80
2019-05-10T04:29:19.856Z,11.81
2019-05-10T04:31:48.158Z,11.78
2019-05-10T04:34:16.621Z,11.75
2019-05-10T04:36:44.920Z,11.80
2019-05-10T04:39:13.255Z,11.81
2019-05-10T04:41:41.569Z,11.75
2019-05-10T04:44:10.194Z,11.79
2019-05-10T04:46:38.532Z,11.80
2019-05-10T04:49:07.003Z,11.82
2019-05-10T04:51:35.728Z,11.86
2019-05-10T04:54:04.019Z,11.88
2019-05-10T04:56:32.597Z,11.91
2019-05-10T04:59:00.896Z,11.91
2019-05-10T05:01:29.269Z,11.87
2019-05-10T05:03:57.573Z,11.92
2019-05-10T05:06:25.889Z,11.92
2019-05-10T05:08:54.460Z,11.88
2019-05-10T05:11:22.741Z,11.89
2019-05-10T05:13:51.047Z,11.90
2019-05-10T05:16:19.454Z,11.90
2019-05-10T05:18:47.772Z,11.90
2019-05-10T05:21:16.101Z,11.89
2019-05-10T05:23:44.691Z,11.89
2019-05-10T05:26:12.969Z,11.87
2019-05-10T05:28:41.276Z,11.87
2019-05-10T05:31:09.597Z,11.88
2019-05-10T05:33:38.174Z,11.91
2019-05-10T05:36:06.502Z,11.89
2019-05-10T05:38:40.660Z,11.82
2019-05-10T05:41:05.257Z,11.84
2019-05-10T05:43:34.050Z,11.84
2019-05-10T05:46:02.360Z,11.84
2019-05-10T05:48:39.998Z,11.86
2019-05-10T05:51:00.714Z,11.86
2019-05-10T05:53:29.034Z,11.88
2019-05-10T05:55:57.339Z,11.93
2019-05-10T05:58:27.257Z,11.96
2019-05-10T06:00:55.806Z,11.88
2019-05-10T06:03:29.327Z,11.98
2019-05-10T06:05:54.666Z,11.99
2019-05-10T06:08:24.960Z,12.00
2019-05-10T06:10:57.788Z,12.07
2019-05-10T06:13:30.379Z,12.13
2019-05-10T06:15:53.749Z,12.24
2019-05-10T06:18:22.049Z,12.33
2019-05-10T06:20:50.358Z,12.41
2019-05-10T06:23:18.665Z,12.48
2019-05-10T06:25:47.083Z,12.53
2019-05-10T06:28:26.615Z,12.57
2019-05-10T06:30:45.740Z,12.66
2019-05-10T06:33:14.135Z,12.68
2019-05-10T06:35:44.455Z,12.68
2019-05-10T06:38:12.816Z,12.70
2019-05-10T06:40:47.339Z,12.81
2019-05-10T06:43:13.288Z,13.00
2019-05-10T06:45:41.567Z,13.19
2019-05-10T06:48:09.961Z,13.40
2019-05-10T06:50:38.257Z,13.78
2019-05-10T06:53:10.834Z,14.15
2019-05-10T06:55:36.696Z,14.36
2019-05-10T06:58:05.271Z,14.21
2019-05-10T07:00:38.024Z,14.01
2019-05-10T07:03:03.867Z,13.64
2019-05-10T07:05:32.296Z,13.44
2019-05-10T07:08:13.854Z,13.38
2019-05-10T07:10:33.826Z,13.36
2019-05-10T07:13:03.670Z,13.32
2019-05-10T07:15:35.972Z,13.20
2019-05-10T07:18:01.152Z,13.19
2019-05-10T07:20:30.939Z,13.25
2019-05-10T07:22:59.996Z,13.46
2019-05-10T07:25:29.353Z,13.61
2019-05-10T07:27:58.015Z,13.73
2019-05-10T07:30:35.424Z,13.64
2019-05-10T07:33:03.901Z,13.57
2019-05-10T07:35:36.907Z,13.53
2019-05-10T07:38:02.574Z,13.67
2019-05-10T07:40:30.895Z,13.74
2019-05-10T07:42:59.197Z,13.74
2019-05-10T07:45:27.585Z,13.65
2019-05-10T07:47:55.886Z,13.63
2019-05-10T07:50:24.180Z,13.69
2019-05-10T07:52:52.468Z,13.73
2019-05-10T07:55:27.723Z,13.86
2019-05-10T07:57:51.077Z,13.91
2019-05-10T08:00:19.465Z,14.10
2019-05-10T08:02:51.241Z,14.26
2019-05-10T08:05:18.562Z,14.56
2019-05-10T08:07:49.346Z,14.79
2019-05-10T08:10:18.670Z,15.08
2019-05-10T08:12:48.419Z,15.35
2019-05-10T08:15:19.501Z,15.31
2019-05-10T08:17:48.706Z,15.45
2019-05-10T08:20:33.176Z,15.52
2019-05-10T08:22:48.095Z,15.63
2019-05-10T08:25:16.398Z,15.44
2019-05-10T08:27:50.393Z,15.30
2019-05-10T08:30:28.014Z,15.25
2019-05-10T08:32:47.943Z,15.25
2019-05-10T08:35:18.531Z,15.45
2019-05-10T08:37:46.349Z,15.44
2019-05-10T08:40:14.736Z,15.53
2019-05-10T08:42:49.030Z,15.62
2019-05-10T08:45:14.862Z,15.78
2019-05-10T08:47:43.494Z,16.02
2019-05-10T08:50:28.863Z,16.28
2019-05-10T08:52:42.480Z,16.24
2019-05-10T08:55:12.309Z,16.16
2019-05-10T08:57:44.592Z,15.97
2019-05-10T09:00:12.994Z,15.76
2019-05-10T09:02:42.658Z,15.65
2019-05-10T09:05:12.482Z,15.57
2019-05-10T09:07:43.003Z,15.54
2019-05-10T09:10:12.785Z,15.55
2019-05-10T09:12:50.590Z,15.52
2019-05-10T09:15:13.594Z,15.51
2019-05-10T09:17:42.855Z,15.52
2019-05-10T09:20:20.483Z,15.42
2019-05-10T09:22:42.356Z,15.47
2019-05-10T09:25:12.905Z,15.51
2019-05-10T09:27:43.163Z,15.64
2019-05-10T09:30:14.221Z,16.00
2019-05-10T09:32:43.457Z,16.23
2019-05-10T09:35:12.817Z,16.39
2019-05-10T09:37:42.217Z,16.34
2019-05-10T09:40:13.465Z,16.06
2019-05-10T09:42:43.398Z,15.76
2019-05-10T09:45:13.282Z,15.53
2019-05-10T09:47:43.550Z,15.32
2019-05-10T09:50:12.633Z,15.12
2019-05-10T09:52:41.219Z,15.05
2019-05-10T09:55:14.681Z,15.03
2019-05-10T09:57:41.163Z,15.11
2019-05-10T10:00:11.028Z,15.20
2019-05-10T10:02:40.478Z,15.21
2019-05-10T10:05:09.402Z,15.30
2019-05-10T10:07:37.723Z,15.50
2019-05-10T10:10:07.581Z,15.67
2019-05-10T10:12:37.270Z,15.66
2019-05-10T10:15:09.228Z,15.73
2019-05-10T10:17:41.927Z,15.72
2019-05-10T10:20:08.411Z,15.82
2019-05-10T10:22:38.175Z,15.83
2019-05-10T10:25:07.420Z,15.97
2019-05-10T10:27:38.756Z,16.16
2019-05-10T10:30:12.762Z,16.34
2019-05-10T10:32:37.701Z,16.40
2019-05-10T10:35:07.842Z,16.42
2019-05-10T10:37:37.862Z,16.28
2019-05-10T10:40:08.579Z,16.22
2019-05-10T10:42:38.228Z,16.31
2019-05-10T10:45:08.820Z,16.48
2019-05-10T10:47:38.146Z,16.67
2019-05-10T10:50:09.189Z,16.85
2019-05-10T10:52:37.786Z,16.97
2019-05-10T10:55:11.211Z,16.93
2019-05-10T10:57:37.555Z,16.97
2019-05-10T11:00:10.273Z,16.88
2019-05-10T11:02:41.507Z,16.71
2019-05-10T11:05:09.831Z,16.60
2019-05-10T11:07:41.127Z,16.61
2019-05-10T11:10:16.121Z,16.78
2019-05-10T11:12:38.350Z,16.96
2019-05-10T11:15:06.742Z,16.84
2019-05-10T11:17:35.048Z,16.89
2019-05-10T11:20:09.322Z,16.88
2019-05-10T11:22:41.907Z,16.91
2019-05-10T11:25:12.033Z,17.06
2019-05-10T11:27:37.128Z,17.10
2019-05-10T11:30:07.340Z,17.20
2019-05-10T11:32:35.622Z,17.32
2019-05-10T11:35:05.559Z,17.48
2019-05-10T11:37:36.425Z,17.48
2019-05-10T11:40:06.131Z,17.40
2019-05-10T11:42:37.410Z,17.40
2019-05-10T11:45:06.196Z,17.00
2019-05-10T11:47:34.785Z,16.81
2019-05-10T11:50:06.493Z,16.85
2019-05-10T11:52:34.783Z,17.06
2019-05-10T11:55:04.365Z,17.16
2019-05-10T11:57:33.073Z,17.10
2019-05-10T12:00:01.537Z,17.10
2019-05-10T12:05:03.618Z,17.26
2019-05-10T12:07:35.295Z,17.34
2019-05-10T12:10:08.278Z,17.21
2019-05-10T12:12:50.087Z,17.39
2019-05-10T12:15:04.285Z,17.42
2019-05-10T12:17:30.406Z,17.58
2019-05-10T12:19:58.709Z,17.59
2019-05-10T12:22:32.058Z,17.51
2019-05-10T12:25:20.755Z,17.33
2019-05-10T12:26:27.297Z,17.20
2019-05-10T12:27:41.757Z,17.19
2019-05-10T12:30:02.602Z,17.07
2019-05-10T12:32:35.190Z,17.16
2019-05-10T12:34:57.832Z,17.28
2019-05-10T12:37:26.151Z,17.31
2019-05-10T12:39:54.556Z,17.36
2019-05-10T12:42:22.836Z,17.34
2019-05-10T12:44:53.808Z,17.27
2019-05-10T12:47:21.525Z,17.07
2019-05-10T12:49:53.970Z,16.95
2019-05-10T12:52:22.123Z,16.89
2019-05-10T12:54:50.093Z,16.81
2019-05-10T12:57:18.986Z,16.85
2019-05-10T12:59:47.534Z,16.93
2019-05-10T13:02:15.832Z,17.10
2019-05-10T13:04:47.227Z,17.20
2019-05-10T13:07:14.193Z,17.42
2019-05-10T13:09:42.542Z,17.65
2019-05-10T13:12:10.808Z,17.70
2019-05-10T13:14:46.132Z,17.74
2019-05-10T13:17:11.820Z,17.69
2019-05-10T13:19:39.433Z,17.49
2019-05-10T13:22:07.744Z,17.34
2019-05-10T13:24:36.033Z,17.21
2019-05-10T13:27:04.351Z,17.07
2019-05-10T13:29:32.655Z,16.93
2019-05-10T13:32:01.003Z,16.87
2019-05-10T13:34:29.672Z,16.72
2019-05-10T13:36:57.991Z,16.63
2019-05-10T13:39:27.680Z,16.59
2019-05-10T13:41:57.092Z,16.52
2019-05-10T13:44:26.248Z,16.35
2019-05-10T13:46:54.561Z,16.15
2019-05-10T13:49:23.142Z,16.00
2019-05-10T13:51:51.725Z,15.81
2019-05-10T13:54:20.297Z,15.72
2019-05-10T13:56:52.260Z,15.62
2019-05-10T13:59:18.614Z,15.53
2019-05-10T14:01:49.406Z,15.48
2019-05-10T14:04:17.299Z,15.47
2019-05-10T14:06:45.601Z,15.47
2019-05-10T14:09:14.389Z,15.44
2019-05-10T14:11:46.861Z,15.37
2019-05-10T14:14:14.700Z,15.35
2019-05-10T14:16:42.844Z,15.30
2019-05-10T14:19:15.819Z,15.25
2019-05-10T14:21:41.494Z,15.35
2019-05-10T14:24:15.134Z,15.52
2019-05-10T14:26:40.125Z,15.74
2019-05-10T14:29:11.124Z,15.92
2019-05-10T14:31:38.770Z,16.10
2019-05-10T14:34:15.515Z,16.31
2019-05-10T14:36:40.752Z,16.47
2019-05-10T14:39:07.870Z,16.59
2019-05-10T14:41:39.639Z,16.74
2019-05-10T14:44:06.263Z,16.87
2019-05-10T14:46:34.814Z,16.84
2019-05-10T14:49:09.610Z,16.75
2019-05-10T14:51:49.630Z,16.68
2019-05-10T14:54:06.725Z,16.62
2019-05-10T14:56:33.829Z,16.65
2019-05-10T14:59:02.245Z,16.69
2019-05-10T15:01:30.545Z,16.80
2019-05-10T15:03:58.838Z,16.87
2019-05-10T15:06:30.955Z,16.80
2019-05-10T15:08:57.175Z,16.75
2019-05-10T15:11:26.576Z,16.72
2019-05-10T15:13:55.880Z,16.73
2019-05-10T15:16:27.072Z,16.69
2019-05-10T15:18:54.228Z,16.75
2019-05-10T15:21:22.545Z,16.88
2019-05-10T15:23:55.361Z,16.90
2019-05-10T15:26:21.265Z,16.93
2019-05-10T15:28:49.661Z,17.00
2019-05-10T15:31:18.018Z,17.02
2019-05-10T15:33:46.335Z,17.05
2019-05-10T15:36:14.631Z,17.05
2019-05-10T15:38:49.816Z,16.97
2019-05-10T15:41:16.879Z,16.85
2019-05-10T15:43:43.015Z,16.67
2019-05-10T15:46:11.318Z,16.29
2019-05-10T15:48:41.729Z,15.73
2019-05-10T15:51:11.349Z,15.19
2019-05-10T15:53:39.950Z,14.86
2019-05-10T15:56:08.292Z,14.50
2019-05-10T15:58:42.114Z,14.26
2019-05-10T16:01:07.129Z,13.97
2019-05-10T16:03:35.419Z,13.76
2019-05-10T16:06:04.101Z,13.57
2019-05-10T16:08:32.408Z,13.45
2019-05-10T16:11:00.720Z,13.33
2019-05-10T16:13:29.190Z,13.26
2019-05-10T16:15:59.435Z,13.27
2019-05-10T16:18:27.609Z,13.33
2019-05-10T16:20:56.410Z,13.43
2019-05-10T16:23:24.745Z,13.50
2019-05-10T16:25:53.050Z,13.55
2019-05-10T16:28:22.975Z,13.64
2019-05-10T16:30:51.376Z,13.70
2019-05-10T16:33:19.794Z,13.79
2019-05-10T16:35:50.355Z,13.79
2019-05-10T16:38:18.289Z,13.71
2019-05-10T16:40:57.111Z,13.78
2019-05-10T16:43:23.964Z,13.82
2019-05-10T16:45:46.688Z,13.80
2019-05-10T16:48:15.342Z,13.86
2019-05-10T16:50:43.641Z,13.92
2019-05-10T16:53:11.950Z,13.99
2019-05-10T16:55:42.502Z,14.12
2019-05-10T16:58:15.038Z,14.31
2019-05-10T17:00:45.583Z,14.45
2019-05-10T17:03:13.039Z,14.54
2019-05-10T17:05:52.718Z,14.62
2019-05-10T17:08:10.928Z,14.55
2019-05-10T17:10:39.274Z,14.43
2019-05-10T17:13:07.844Z,14.25
2019-05-10T17:15:39.952Z,14.10
2019-05-10T17:18:10.805Z,13.97
2019-05-10T17:20:36.202Z,13.83
2019-05-10T17:23:08.940Z,13.76
2019-05-10T17:25:35.525Z,13.67
2019-05-10T17:28:03.969Z,13.59
2019-05-10T17:30:32.217Z,13.56
2019-05-10T17:33:04.100Z,13.55
2019-05-10T17:35:30.801Z,13.55
2019-05-10T17:37:59.143Z,13.59
2019-05-10T17:40:27.464Z,13.65
2019-05-10T17:42:55.814Z,13.67
2019-05-10T17:45:24.436Z,13.70
2019-05-10T17:47:52.777Z,13.69
2019-05-10T17:50:21.391Z,13.66
2019-05-10T17:52:49.703Z,13.63
2019-05-10T17:55:18.523Z,13.63
2019-05-10T17:57:48.538Z,13.62
2019-05-10T18:00:17.722Z,13.62
2019-05-10T18:02:46.022Z,13.60
2019-05-10T18:05:14.634Z,13.59
2019-05-10T18:07:42.955Z,13.50
2019-05-10T18:10:11.557Z,13.46
2019-05-10T18:12:39.905Z,13.40
2019-05-10T18:15:09.073Z,13.37
2019-05-10T18:17:37.370Z,13.32
2019-05-10T18:20:06.228Z,13.29
2019-05-10T18:22:42.235Z,13.26
2019-05-10T18:25:04.940Z,13.22
2019-05-10T18:27:33.241Z,13.18
2019-05-10T18:30:02.190Z,13.17
2019-05-10T18:32:35.588Z,13.14
2019-05-10T18:35:00.823Z,13.11
2019-05-10T18:37:29.070Z,13.05
2019-05-10T18:39:57.676Z,13.02
2019-05-10T18:42:28.013Z,13.00
2019-05-10T18:44:56.373Z,12.96
2019-05-10T18:47:24.681Z,12.94
2019-05-10T18:49:53.301Z,12.91
2019-05-10T18:52:21.938Z,12.88
2019-05-10T18:54:50.230Z,12.87
2019-05-10T18:57:19.515Z,12.85
2019-05-10T18:59:48.039Z,12.82
2019-05-10T19:02:17.831Z,12.77
2019-05-10T19:04:51.845Z,12.71
2019-05-10T19:07:16.488Z,12.70
2019-05-10T19:09:44.792Z,12.66
2019-05-10T19:12:18.633Z,12.65
2019-05-10T19:14:43.140Z,12.61
2019-05-10T19:17:11.457Z,12.60
2019-05-10T19:19:42.113Z,12.58
2019-05-10T19:22:10.394Z,12.57
2019-05-10T19:24:38.837Z,12.55
2019-05-10T19:27:09.205Z,12.49
2019-05-10T19:29:43.024Z,12.43
2019-05-10T19:32:11.451Z,12.37
2019-05-10T19:34:38.191Z,12.31
2019-05-10T19:37:06.516Z,12.23
2019-05-10T19:39:34.847Z,12.16
2019-05-10T19:42:06.010Z,12.09
2019-05-10T19:44:34.753Z,11.99
2019-05-10T19:47:03.512Z,11.92
2019-05-10T19:49:32.239Z,11.86
2019-05-10T19:52:00.550Z,11.78
2019-05-10T19:54:29.111Z,11.71
2019-05-10T19:56:57.435Z,11.65
2019-05-10T19:59:25.746Z,11.58
2019-05-10T20:01:54.078Z,11.55
2019-05-10T20:04:22.399Z,11.51
2019-05-10T20:06:50.706Z,11.48
2019-05-10T20:09:19.016Z,11.43
2019-05-10T20:11:47.340Z,11.40
2019-05-10T20:14:15.643Z,11.37
2019-05-10T20:16:52.614Z,11.35
2019-05-10T20:19:14.360Z,11.35
2019-05-10T20:21:43.008Z,11.35
2019-05-10T20:24:11.341Z,11.32
2019-05-10T20:26:39.622Z,11.26
2019-05-10T20:29:07.934Z,11.21
2019-05-10T20:31:36.346Z,11.17
2019-05-10T20:34:04.745Z,11.13
2019-05-10T20:36:33.043Z,11.08
2019-05-10T20:39:01.344Z,11.09
2019-05-10T20:41:29.686Z,11.15
2019-05-10T20:43:57.981Z,11.16
2019-05-10T20:46:26.596Z,11.16
2019-05-10T20:48:54.979Z,11.17
2019-05-10T20:51:23.320Z,11.12
2019-05-10T20:53:51.610Z,11.09
2019-05-10T20:56:19.933Z,11.03
2019-05-10T20:58:48.259Z,10.95
2019-05-10T21:01:16.581Z,10.90
2019-05-10T21:03:44.892Z,10.87
2019-05-10T21:06:13.211Z,10.85
2019-05-10T21:08:41.518Z,10.81
2019-05-10T21:11:09.838Z,10.74
2019-05-10T21:13:38.143Z,10.72
2019-05-10T21:16:06.719Z,10.71
2019-05-10T21:18:35.028Z,10.70
2019-05-10T21:21:03.356Z,10.72
2019-05-10T21:23:31.661Z,10.67
2019-05-10T21:26:00.242Z,10.62
2019-05-10T21:28:28.534Z,10.57
2019-05-10T21:30:57.235Z,10.51
2019-05-10T21:33:25.793Z,10.49
2019-05-10T21:35:54.113Z,10.51
2019-05-10T21:38:32.480Z,10.54
2019-05-10T21:40:52.623Z,10.55
2019-05-10T21:43:20.962Z,10.54
2019-05-10T21:45:49.298Z,10.53
2019-05-10T21:48:17.632Z,10.50
2019-05-10T21:50:45.956Z,10.46
2019-05-10T21:53:14.287Z,10.43
2019-05-10T21:55:42.675Z,10.40
2019-05-10T21:58:10.987Z,10.37
2019-05-10T22:00:40.971Z,10.36
2019-05-10T22:03:09.622Z,10.38
2019-05-10T22:05:37.920Z,10.40
2019-05-10T22:08:06.247Z,10.39
2019-05-10T22:10:34.563Z,10.38
2019-05-10T22:13:02.864Z,10.29
2019-05-10T22:15:31.516Z,10.25
2019-05-10T22:18:00.002Z,10.25
2019-05-10T22:20:28.318Z,10.28
2019-05-10T22:22:56.642Z,10.26
2019-05-10T22:25:24.961Z,10.22
2019-05-10T22:27:53.268Z,10.20
2019-05-10T22:30:21.597Z,10.20
2019-05-10T22:32:49.899Z,10.23
2019-05-10T22:35:18.292Z,10.26
2019-05-10T22:37:46.905Z,10.28
2019-05-10T22:40:15.614Z,10.31
2019-05-10T22:42:43.948Z,10.31
2019-05-10T22:45:12.310Z,10.32
2019-05-10T22:47:40.624Z,10.33
2019-05-10T22:50:10.252Z,10.31
2019-05-10T22:52:38.934Z,10.30
2019-05-10T22:55:08.078Z,10.21
2019-05-10T22:57:36.422Z,10.18
2019-05-10T23:00:06.151Z,10.20
2019-05-10T23:02:34.471Z,10.19
2019-05-10T23:05:03.012Z,10.14
2019-05-10T23:07:31.589Z,10.11
2019-05-10T23:09:59.891Z,10.13
2019-05-10T23:12:28.262Z,10.17
2019-05-10T23:14:56.589Z,10.21
2019-05-10T23:17:24.920Z,10.22
2019-05-10T23:19:53.214Z,10.25
2019-05-10T23:22:21.821Z,10.28
2019-05-10T23:24:50.140Z,10.27
2019-05-10T23:27:18.474Z,10.26
2019-05-10T23:29:46.770Z,10.23
2019-05-10T23:32:15.109Z,10.16
2019-05-10T23:34:43.630Z,10.17
2019-05-10T23:37:12.313Z,10.22
2019-05-10T23:39:41.545Z,10.23
2019-05-10T23:42:10.179Z,10.26
2019-05-10T23:44:38.498Z,10.26
2019-05-10T23:47:06.833Z,10.23
2019-05-10T23:49:35.136Z,10.19
2019-05-10T23:52:03.638Z,10.18
2019-05-10T23:54:32.186Z,10.16
2019-05-10T23:57:00.473Z,10.16
2019-05-10T23:59:28.778Z,10.17
